Time;durP1;ratioP1;P1;durP2;ratioP2;P2;SDS_P1;SDS_P2;PMS_P1;PMS_P2;Temp;Humidity;BMP_temperature;BMP_pressure;BME280_temperature;BME280_humidity;BME280_pressure;Samples;Min_cycle;Max_cycle;Signal;HPM_P1;HPM_P2
2023/08/11 00:00:56;;;;;;;7.30;4.00;;;;;;;12.45;80.78;100993.11;102661;278;114016;-55
2023/08/11 00:03:43;;;;;;;7.60;4.30;;;;;;;12.34;80.81;100994.13;102527;278;96823;-55
2023/08/11 00:06:18;;;;;;;7.60;4.20;;;;;;;12.28;80.87;100996.65;102560;278;98053;-55
2023/08/11 00:08:56;;;;;;;9.20;4.10;;;;;;;12.23;81.03;100994.88;102503;278;120080;-55
2023/08/11 00:11:33;;;;;;;9.50;4.30;;;;;;;12.20;81.06;100992.20;102556;278;104486;-54
2023/08/11 00:14:12;;;;;;;9.30;3.70;;;;;;;12.14;81.17;100995.30;102508;278;114160;-56
2023/08/11 00:16:56;;;;;;;7.20;4.10;;;;;;;12.11;81.28;100987.29;102506;278;97237;-55
2023/08/11 00:19:40;;;;;;;6.20;4.10;;;;;;;12.08;81.26;100988.57;102509;278;97782;-55
2023/08/11 00:22:18;;;;;;;7.30;4.00;;;;;;;12.05;81.28;100986.11;102560;278;120846;-58
2023/08/11 00:25:03;;;;;;;7.50;3.50;;;;;;;12.01;81.55;100984.05;102540;279;104332;-58
2023/08/11 00:27:43;;;;;;;7.60;3.80;;;;;;;11.96;81.72;100984.50;102669;278;114814;-58
2023/08/11 00:30:25;;;;;;;7.60;4.00;;;;;;;11.95;81.67;100982.77;102630;278;95048;-58
2023/08/11 00:33:02;;;;;;;8.90;4.40;;;;;;;11.94;81.69;100981.21;102625;278;96226;-56
2023/08/11 00:35:45;;;;;;;9.50;4.00;;;;;;;11.96;81.87;100983.98;102561;278;119948;-58
2023/08/11 00:38:38;;;;;;;6.40;3.80;;;;;;;11.98;82.05;100981.15;102404;279;105915;-54
2023/08/11 00:41:16;;;;;;;6.90;4.40;;;;;;;11.93;82.20;100977.79;102414;279;113187;-56
2023/08/11 00:43:52;;;;;;;6.40;4.00;;;;;;;11.92;82.13;100978.97;102418;279;96928;-54
2023/08/11 00:46:31;;;;;;;6.80;3.90;;;;;;;11.92;82.09;100976.10;102408;279;96908;-56
2023/08/11 00:49:11;;;;;;;7.30;4.50;;;;;;;11.92;82.09;100979.27;102375;279;121063;-56
2023/08/11 00:51:48;;;;;;;5.60;4.10;;;;;;;11.93;82.27;100979.31;102412;279;104986;-56
2023/08/11 00:54:26;;;;;;;6.70;3.80;;;;;;;11.89;82.27;100977.09;102353;279;114892;-55
2023/08/11 00:57:01;;;;;;;7.00;4.00;;;;;;;11.87;82.40;100977.06;102426;279;96209;-56
2023/08/11 00:59:43;;;;;;;9.20;5.20;;;;;;;11.87;82.41;100976.43;102435;279;95768;-56
2023/08/11 01:02:28;;;;;;;7.20;5.10;;;;;;;11.83;82.54;100975.52;102421;279;120460;-55
2023/08/11 01:05:06;;;;;;;5.00;4.20;;;;;;;11.79;82.63;100971.35;102369;279;105474;-55
2023/08/11 01:07:48;;;;;;;9.10;4.40;;;;;;;11.81;82.75;100973.10;102462;279;115598;-58
2023/08/11 01:10:38;;;;;;;6.70;4.40;;;;;;;11.77;82.44;100979.73;102486;279;96936;-58
2023/08/11 01:13:22;;;;;;;9.80;4.20;;;;;;;11.73;82.81;100970.16;102491;279;97309;-55
2023/08/11 01:16:04;;;;;;;7.10;4.10;;;;;;;11.69;82.96;100971.34;102416;279;121243;-55
2023/08/11 01:18:41;;;;;;;7.70;4.30;;;;;;;11.66;83.01;100967.64;102433;279;105026;-55
2023/08/11 01:21:21;;;;;;;7.70;4.60;;;;;;;11.60;83.14;100969.50;102398;279;115742;-55
2023/08/11 01:24:00;;;;;;;6.50;4.30;;;;;;;11.54;83.06;100962.45;102413;279;95653;-56
2023/08/11 01:26:42;;;;;;;6.20;4.10;;;;;;;11.51;83.43;100964.27;102410;279;96024;-57
2023/08/11 01:29:20;;;;;;;8.00;4.60;;;;;;;11.50;83.39;100960.98;102455;279;119383;-57
2023/08/11 01:32:00;;;;;;;8.60;4.70;;;;;;;11.49;83.30;100959.81;102533;279;105546;-55
2023/08/11 01:34:39;;;;;;;5.40;3.90;;;;;;;11.51;83.50;100963.42;102457;279;114254;-56
2023/08/11 01:37:19;;;;;;;5.30;4.00;;;;;;;11.47;83.30;100959.11;102503;278;96777;-55
2023/08/11 01:39:58;;;;;;;7.70;4.00;;;;;;;11.42;83.41;100960.48;102503;278;97865;-55
2023/08/11 01:42:35;;;;;;;6.60;4.20;;;;;;;11.39;83.46;100957.02;102553;278;120114;-58
2023/08/11 01:45:16;;;;;;;5.50;3.60;;;;;;;11.39;83.35;100957.36;102544;277;105330;-58
2023/08/11 01:47:56;;;;;;;8.00;4.20;;;;;;;11.37;83.37;100959.10;102566;277;114799;-54
2023/08/11 01:50:33;;;;;;;7.40;4.50;;;;;;;11.35;83.45;100959.70;102534;279;96860;-53
2023/08/11 01:53:18;;;;;;;4.80;4.00;;;;;;;11.31;83.52;100958.36;102541;266;96760;-56
2023/08/11 01:56:07;;;;;;;6.70;4.00;;;;;;;11.28;83.52;100958.73;103017;279;118984;-55
2023/08/11 01:58:44;;;;;;;7.00;4.20;;;;;;;11.24;83.53;100960.77;102581;279;102933;-57
2023/08/11 02:01:21;;;;;;;7.60;4.90;;;;;;;11.20;83.55;100959.50;102599;279;114518;-53
2023/08/11 02:04:01;;;;;;;6.00;4.40;;;;;;;11.17;83.72;100961.20;102478;279;96920;-52
2023/08/11 02:06:45;;;;;;;10.10;4.70;;;;;;;11.12;83.87;100961.50;102519;279;96692;-57
2023/08/11 02:09:30;;;;;;;6.00;4.60;;;;;;;11.04;83.96;100957.79;102580;266;121329;-58
2023/08/11 02:12:08;;;;;;;5.30;4.30;;;;;;;11.00;83.88;100959.90;102563;279;105724;-53
2023/08/11 02:14:43;;;;;;;6.50;4.70;;;;;;;10.96;83.87;100961.45;102513;279;115529;-54
2023/08/11 02:17:22;;;;;;;7.10;4.30;;;;;;;10.95;83.85;100959.32;102535;278;96518;-56
2023/08/11 02:20:09;;;;;;;6.10;4.70;;;;;;;10.92;83.98;100961.29;102534;278;96743;-56
2023/08/11 02:22:49;;;;;;;4.80;3.90;;;;;;;10.88;84.10;100961.10;102535;278;120709;-55
2023/08/11 02:25:30;;;;;;;6.50;4.10;;;;;;;10.87;84.20;100964.50;102575;279;104831;-55
2023/08/11 02:28:12;;;;;;;7.50;4.40;;;;;;;10.84;84.49;100968.95;102545;278;114831;-56
2023/08/11 02:30:57;;;;;;;6.80;5.00;;;;;;;10.81;84.65;100967.73;102516;279;97161;-56
2023/08/11 02:33:33;;;;;;;8.20;4.50;;;;;;;10.82;84.42;100972.61;102584;279;96249;-58
2023/08/11 02:36:13;;;;;;;7.50;4.30;;;;;;;10.82;84.49;100971.39;102593;279;119010;-56
2023/08/11 02:38:52;;;;;;;6.20;4.20;;;;;;;10.78;84.47;100972.90;102518;278;106088;-56
2023/08/11 02:41:27;;;;;;;8.20;4.90;;;;;;;10.74;84.41;100975.64;102543;278;115120;-57
2023/08/11 02:44:06;;;;;;;8.70;4.50;;;;;;;10.72;84.46;100977.79;102566;279;95462;-58
2023/08/11 02:46:45;;;;;;;8.50;4.40;;;;;;;10.72;84.55;100983.99;102574;278;97966;-54
2023/08/11 02:49:25;;;;;;;5.80;4.70;;;;;;;10.66;84.54;100982.92;102503;278;121107;-53
2023/08/11 02:52:04;;;;;;;10.00;5.10;;;;;;;10.59;84.53;100979.77;102541;278;105353;-56
2023/08/11 02:54:49;;;;;;;7.20;4.90;;;;;;;10.55;84.81;100982.79;102487;278;113941;-56
2023/08/11 02:57:29;;;;;;;7.10;5.20;;;;;;;10.56;84.88;100991.63;102534;279;96926;-54
2023/08/11 03:00:10;;;;;;;7.20;4.80;;;;;;;10.58;84.91;100994.87;102540;279;96610;-53
2023/08/11 03:02:50;;;;;;;8.30;4.90;;;;;;;10.54;85.01;100999.67;102429;279;121861;-55
2023/08/11 03:05:34;;;;;;;6.70;4.60;;;;;;;10.47;84.93;101001.36;102534;279;104982;-56
2023/08/11 03:08:10;;;;;;;6.80;4.70;;;;;;;10.42;84.78;100999.00;102512;278;115191;-55
2023/08/11 03:10:51;;;;;;;6.20;4.20;;;;;;;10.36;84.87;101000.03;102494;279;95405;-55
2023/08/11 03:13:29;;;;;;;7.40;4.40;;;;;;;10.35;84.95;101003.66;102133;278;487386;-55
2023/08/11 03:16:06;;;;;;;6.70;4.60;;;;;;;10.34;85.04;101004.81;102447;278;119634;-57
2023/08/11 03:18:46;;;;;;;6.70;4.70;;;;;;;10.34;85.07;101004.30;102565;279;105613;-58
2023/08/11 03:21:27;;;;;;;6.30;4.80;;;;;;;10.33;85.03;101003.25;102553;279;113660;-56
2023/08/11 03:24:06;;;;;;;8.40;4.70;;;;;;;10.32;85.10;101006.43;102520;278;96552;-55
2023/08/11 03:26:45;;;;;;;6.90;4.50;;;;;;;10.32;85.09;101006.27;102578;279;96418;-55
2023/08/11 03:29:24;;;;;;;6.60;4.50;;;;;;;10.33;85.30;101005.20;102481;279;120405;-55
2023/08/11 03:31:59;;;;;;;6.70;4.60;;;;;;;10.34;85.49;101004.81;102568;278;105251;-56
2023/08/11 03:34:37;;;;;;;7.20;4.70;;;;;;;10.34;85.48;101003.02;102500;278;114840;-55
2023/08/11 03:37:12;;;;;;;6.60;4.80;;;;;;;10.37;85.50;101007.53;102537;279;96733;-57
2023/08/11 03:39:46;;;;;;;12.40;5.00;;;;;;;10.39;85.57;101007.29;102609;279;95739;-57
2023/08/11 03:42:26;;;;;;;;;;;;;;;10.47;85.69;101011.28;102565;278;119336;-56
2023/08/11 03:45:08;;;;;;;7.30;5.30;;;;;;;10.55;85.78;101010.55;102514;278;106214;-56
2023/08/11 03:47:49;;;;;;;7.30;5.20;;;;;;;10.62;85.94;101008.56;102499;278;113853;-56
2023/08/11 03:50:30;;;;;;;6.80;4.90;;;;;;;10.70;85.94;101006.06;102496;278;95251;-56
2023/08/11 03:53:06;;;;;;;6.20;4.70;;;;;;;10.80;86.09;101003.69;102599;278;97565;-57
2023/08/11 03:55:45;;;;;;;5.70;4.00;;;;;;;10.89;86.20;101004.26;102594;279;119107;-58
2023/08/11 03:58:28;;;;;;;7.50;4.30;;;;;;;11.23;86.21;101003.86;102557;278;105716;-54
2023/08/11 04:01:06;;;;;;;6.90;4.50;;;;;;;12.17;85.74;101003.58;102524;279;114830;-56
2023/08/11 04:03:42;;;;;;;9.80;4.90;;;;;;;12.53;85.53;100999.56;102503;279;93068;-56
2023/08/11 04:06:32;;;;;;;6.20;4.40;;;;;;;12.39;85.18;100998.64;102527;278;97788;-55
2023/08/11 04:09:08;;;;;;;8.50;4.60;;;;;;;12.41;85.57;100999.02;102522;278;121610;-54
2023/08/11 04:11:43;;;;;;;5.70;4.30;;;;;;;12.50;85.41;101000.58;102511;278;105621;-57
2023/08/11 04:14:26;;;;;;;6.60;4.00;;;;;;;12.56;85.45;101003.20;102556;278;113474;-57
2023/08/11 04:17:04;;;;;;;7.50;4.40;;;;;;;12.50;85.51;101003.32;102605;278;96878;-53
2023/08/11 04:19:43;;;;;;;6.50;4.40;;;;;;;12.49;85.84;101002.17;102380;278;96790;-54
2023/08/11 04:22:19;;;;;;;6.90;4.60;;;;;;;12.57;85.86;101004.42;102521;278;120361;-55
2023/08/11 04:24:56;;;;;;;7.80;4.80;;;;;;;12.68;85.63;101006.35;102503;278;105533;-55
2023/08/11 04:27:40;;;;;;;8.90;5.10;;;;;;;12.84;85.54;101001.98;102534;278;113673;-52
2023/08/11 04:30:16;;;;;;;5.60;4.60;;;;;;;12.99;85.29;101005.64;102542;278;93262;-54
2023/08/11 04:32:53;;;;;;;7.00;4.90;;;;;;;13.06;85.35;101006.63;102573;278;96200;-54
2023/08/11 04:35:30;;;;;;;8.10;5.30;;;;;;;13.17;85.08;101010.02;102513;278;119489;-52
2023/08/11 04:38:08;;;;;;;7.50;4.90;;;;;;;13.27;85.16;101010.55;102581;278;105509;-55
2023/08/11 04:40:53;;;;;;;5.80;4.60;;;;;;;13.35;84.94;101017.98;102515;278;114613;-55
2023/08/11 04:43:31;;;;;;;9.20;4.80;;;;;;;13.45;84.92;101015.25;102542;278;97261;-57
2023/08/11 04:46:08;;;;;;;6.90;5.10;;;;;;;13.57;84.94;101013.95;102612;278;96978;-57
2023/08/11 04:48:45;;;;;;;9.00;5.10;;;;;;;13.72;84.68;101013.55;102629;278;119466;-58
2023/08/11 04:51:24;;;;;;;9.10;5.50;;;;;;;14.02;84.36;101016.28;102647;267;105495;-57
2023/08/11 04:54:07;;;;;;;6.50;4.90;;;;;;;15.30;82.93;101016.00;102708;279;114651;-57
2023/08/11 04:56:47;;;;;;;6.70;4.90;;;;;;;17.28;80.84;101013.83;102680;278;94711;-55
2023/08/11 04:59:25;;;;;;;7.30;5.20;;;;;;;18.95;79.07;101012.77;102523;279;97407;-56
2023/08/11 05:02:09;;;;;;;8.80;5.10;;;;;;;20.55;77.61;101009.45;102565;278;120091;-55
2023/08/11 05:04:49;;;;;;;9.90;5.40;;;;;;;21.83;74.65;101009.30;102547;278;104486;-55
2023/08/11 05:07:25;;;;;;;9.60;5.50;;;;;;;22.84;72.06;101005.31;102536;278;114756;-54
2023/08/11 05:09:59;;;;;;;6.00;5.00;;;;;;;22.97;69.46;101007.70;102546;279;95212;-54
2023/08/11 05:12:38;;;;;;;7.80;5.80;;;;;;;22.34;68.10;101008.82;102556;279;98331;-56
2023/08/11 05:15:17;;;;;;;8.20;5.50;;;;;;;21.68;67.66;101016.63;102493;279;120820;-57
2023/08/11 05:17:58;;;;;;;7.30;5.00;;;;;;;21.14;67.33;101017.46;102579;279;105064;-56
2023/08/11 05:20:38;;;;;;;8.30;5.90;;;;;;;20.24;67.22;101012.51;102470;279;114117;-55
2023/08/11 05:23:20;;;;;;;8.00;5.80;;;;;;;19.81;67.35;101020.25;102556;278;94627;-54
2023/08/11 05:25:56;;;;;;;6.80;5.90;;;;;;;19.25;67.74;101015.67;102577;278;97457;-57
2023/08/11 05:28:41;;;;;;;8.40;5.20;;;;;;;18.94;68.17;101016.63;102518;278;120422;-56
2023/08/11 05:31:20;;;;;;;6.90;5.00;;;;;;;18.82;68.55;101019.46;102550;279;103667;-55
2023/08/11 05:33:57;;;;;;;6.50;5.30;;;;;;;19.86;68.69;101017.39;102517;279;115203;-55
2023/08/11 05:36:35;;;;;;;7.30;5.30;;;;;;;21.43;67.15;101018.10;102533;279;94802;-56
2023/08/11 05:39:13;;;;;;;8.30;5.50;;;;;;;22.90;65.64;101013.09;102520;278;97251;-56
2023/08/11 05:41:54;;;;;;;6.60;5.20;;;;;;;24.58;63.73;101007.98;102577;279;119753;-58
2023/08/11 05:44:35;;;;;;;7.60;5.30;;;;;;;25.91;61.13;101003.98;102607;267;105919;-58
2023/08/11 05:47:13;;;;;;;6.90;5.10;;;;;;;26.97;59.13;100999.10;102622;278;113183;-56
2023/08/11 05:49:55;;;;;;;7.00;5.00;;;;;;;28.04;57.29;101000.17;102527;267;94290;-56
2023/08/11 05:52:37;;;;;;;7.70;4.60;;;;;;;28.94;55.18;101001.64;102583;279;96468;-58
2023/08/11 05:55:16;;;;;;;6.20;5.00;;;;;;;29.54;52.95;101003.33;102800;279;121350;-58
2023/08/11 05:57:55;;;;;;;6.50;4.80;;;;;;;29.97;51.16;101004.70;102566;278;106690;-54
2023/08/11 06:00:30;;;;;;;6.90;4.70;;;;;;;30.16;50.03;101006.49;102491;278;114022;-54
2023/08/11 06:03:09;;;;;;;5.60;4.80;;;;;;;30.79;48.47;101002.24;102527;278;94594;-56
2023/08/11 06:05:51;;;;;;;6.90;4.90;;;;;;;31.35;46.90;101000.20;102515;278;98349;-56
2023/08/11 06:08:27;;;;;;;8.00;5.40;;;;;;;31.78;46.30;101001.17;102534;278;120022;-56
2023/08/11 06:11:06;;;;;;;6.80;4.10;;;;;;;32.43;45.04;100999.11;102541;278;106011;-54
2023/08/11 06:13:42;;;;;;;6.90;3.90;;;;;;;32.92;43.11;101002.02;102519;278;114433;-54
2023/08/11 06:16:21;;;;;;;7.00;3.70;;;;;;;33.27;42.50;101001.63;102554;279;94392;-56
2023/08/11 06:18:59;;;;;;;5.60;3.70;;;;;;;33.10;41.07;101004.41;102518;278;97791;-55
2023/08/11 06:21:37;;;;;;;5.30;3.80;;;;;;;33.27;39.99;101001.79;102528;279;121010;-58
2023/08/11 06:24:16;;;;;;;7.70;4.10;;;;;;;33.53;39.41;100999.80;102540;279;105683;-58
2023/08/11 06:26:54;;;;;;;4.80;3.50;;;;;;;34.13;38.47;101003.36;102524;278;113437;-54
2023/08/11 06:29:30;;;;;;;6.10;3.50;;;;;;;34.54;37.32;101001.18;102530;278;93704;-54
2023/08/11 06:32:06;;;;;;;8.00;3.40;;;;;;;34.73;36.16;101006.16;102585;278;96587;-56
2023/08/11 06:34:41;;;;;;;3.80;3.30;;;;;;;34.75;35.81;101009.86;102548;278;120394;-55
2023/08/11 06:37:16;;;;;;;3.80;3.10;;;;;;;34.76;35.06;101011.46;102606;279;104560;-59
2023/08/11 06:40:00;;;;;;;4.00;2.80;;;;;;;34.74;35.38;101011.04;102608;266;113588;-58
2023/08/11 06:42:36;;;;;;;3.70;2.30;;;;;;;35.42;34.31;101011.96;102547;278;94086;-56
2023/08/11 06:45:19;;;;;;;5.30;3.40;;;;;;;35.55;33.53;101009.38;102562;278;97413;-58
2023/08/11 06:47:56;;;;;;;3.90;2.50;;;;;;;35.89;32.38;101010.30;102547;279;121133;-60
2023/08/11 06:50:34;;;;;;;4.50;2.80;;;;;;;36.24;31.93;101012.17;102541;278;106235;-54
2023/08/11 06:53:17;;;;;;;5.00;2.60;;;;;;;35.93;31.21;101013.30;102563;279;115343;-54
2023/08/11 06:55:56;;;;;;;3.90;2.30;;;;;;;33.79;31.30;101018.52;102529;279;94296;-56
2023/08/11 06:58:35;;;;;;;3.60;2.50;;;;;;;31.76;32.09;101021.87;102554;279;98468;-55
2023/08/11 07:01:12;;;;;;;4.60;2.70;;;;;;;30.10;32.84;101026.34;102555;278;120256;-53
2023/08/11 07:03:51;;;;;;;3.40;2.30;;;;;;;28.99;34.21;101022.34;102532;279;105550;-54
2023/08/11 07:06:28;;;;;;;4.00;2.30;;;;;;;28.42;35.15;101022.52;102525;279;115095;-54
2023/08/11 07:09:09;;;;;;;6.60;2.70;;;;;;;27.73;36.06;101025.55;102534;278;93896;-54
2023/08/11 07:11:46;;;;;;;3.60;2.10;;;;;;;27.31;36.88;101023.11;102600;279;96848;-58
2023/08/11 07:14:24;;;;;;;3.90;2.30;;;;;;;27.80;36.96;101024.45;102695;279;121164;-58
2023/08/11 07:17:04;;;;;;;3.70;2.00;;;;;;;28.93;36.55;101024.63;102581;279;105127;-55
2023/08/11 07:19:41;;;;;;;2.60;2.20;;;;;;;29.26;36.14;101030.14;102535;279;114403;-54
2023/08/11 07:22:18;;;;;;;2.70;2.10;;;;;;;30.24;35.75;101030.81;102525;279;93536;-56
2023/08/11 07:24:52;;;;;;;3.20;2.10;;;;;;;31.84;34.84;101028.45;102548;279;96869;-55
2023/08/11 07:27:36;;;;;;;3.20;2.20;;;;;;;33.27;33.89;101029.55;102410;279;120529;-53
2023/08/11 07:30:14;;;;;;;2.70;1.90;;;;;;;34.47;32.71;101027.73;102535;279;106255;-54
2023/08/11 07:32:55;;;;;;;5.10;2.40;;;;;;;35.17;31.68;101028.93;102618;278;114474;-58
2023/08/11 07:35:31;;;;;;;4.20;2.50;;;;;;;35.79;30.76;101025.25;102681;279;94503;-58
2023/08/11 07:38:08;;;;;;;3.30;2.10;;;;;;;36.29;30.20;101026.29;102586;279;98086;-57
2023/08/11 07:40:46;;;;;;;5.50;2.40;;;;;;;36.66;29.03;101024.10;102502;279;120110;-56
2023/08/11 07:43:24;;;;;;;9.10;2.70;;;;;;;36.29;28.42;101027.20;102545;279;104555;-54
2023/08/11 07:46:06;;;;;;;5.10;2.40;;;;;;;36.56;28.36;101023.77;102546;278;115305;-56
2023/08/11 07:48:48;;;;;;;4.30;2.40;;;;;;;36.75;27.98;101021.92;102531;278;93490;-55
2023/08/11 07:51:32;;;;;;;3.10;2.30;;;;;;;37.18;27.94;101022.98;102528;278;97948;-54
2023/08/11 07:54:17;;;;;;;3.90;2.00;;;;;;;37.11;27.69;101022.30;102516;278;120991;-53
2023/08/11 07:56:56;;;;;;;3.30;2.30;;;;;;;37.29;27.61;101022.00;102543;278;105397;-56
2023/08/11 07:59:33;;;;;;;3.60;2.20;;;;;;;37.64;27.65;101020.08;102542;278;115137;-55
2023/08/11 08:02:13;;;;;;;4.10;1.90;;;;;;;37.85;26.92;101021.92;102526;278;95054;-55
2023/08/11 08:04:47;;;;;;;5.30;2.20;;;;;;;37.94;26.42;101020.27;102542;278;97598;-56
2023/08/11 08:07:23;;;;;;;3.40;2.50;;;;;;;38.16;26.65;101022.39;102563;278;120865;-55
2023/08/11 08:09:57;;;;;;;3.70;2.00;;;;;;;38.42;26.23;101026.05;102546;278;104894;-55
2023/08/11 08:12:39;;;;;;;3.90;2.10;;;;;;;38.46;25.82;101027.20;102671;278;113354;-57
2023/08/11 08:15:17;;;;;;;3.50;2.00;;;;;;;38.44;25.72;101026.98;102712;278;93280;-57
2023/08/11 08:18:00;;;;;;;4.00;2.40;;;;;;;38.34;25.30;101030.98;102585;276;97271;-55
2023/08/11 08:20:34;;;;;;;4.20;2.30;;;;;;;38.17;24.66;101032.50;102533;278;120803;-55
2023/08/11 08:23:19;;;;;;;3.50;2.10;;;;;;;38.09;24.49;101030.39;102753;279;105197;-57
2023/08/11 08:25:58;;;;;;;2.70;2.00;;;;;;;37.99;24.81;101032.77;102717;279;114393;-54
2023/08/11 08:28:38;;;;;;;4.70;2.60;;;;;;;38.09;24.69;101030.65;102539;278;94833;-54
2023/08/11 08:31:18;;;;;;;3.00;2.00;;;;;;;38.18;24.87;101035.66;102554;278;97573;-56
2023/08/11 08:34:00;;;;;;;3.50;2.10;;;;;;;38.20;24.55;101034.60;102512;278;120069;-55
2023/08/11 08:36:41;;;;;;;4.10;2.10;;;;;;;38.00;24.60;101035.44;102544;278;105386;-55
2023/08/11 08:39:22;;;;;;;3.80;2.10;;;;;;;37.84;24.62;101035.21;102463;279;113994;-55
2023/08/11 08:41:58;;;;;;;2.20;1.60;;;;;;;37.81;24.35;101036.06;102522;279;95230;-55
2023/08/11 08:44:39;;;;;;;2.20;1.70;;;;;;;37.91;24.51;101030.66;102565;278;98716;-56
2023/08/11 08:47:20;;;;;;;4.10;2.00;;;;;;;38.21;25.19;101031.17;102545;279;121179;-53
2023/08/11 08:49:59;;;;;;;2.50;1.80;;;;;;;38.46;24.05;101033.65;102522;278;105749;-53
2023/08/11 08:52:35;;;;;;;2.70;1.90;;;;;;;38.00;23.59;101029.88;102524;279;114971;-55
2023/08/11 08:55:11;;;;;;;2.50;1.60;;;;;;;38.01;24.30;101029.43;102531;278;94301;-55
2023/08/11 08:57:53;;;;;;;2.20;1.70;;;;;;;38.21;23.72;101033.55;102562;278;97682;-53
2023/08/11 09:00:30;;;;;;;2.40;1.50;;;;;;;37.85;23.49;101029.10;102478;278;119582;-53
2023/08/11 09:03:07;;;;;;;2.80;2.10;;;;;;;37.81;23.82;101028.88;102565;279;106071;-55
2023/08/11 09:05:43;;;;;;;2.00;1.50;;;;;;;37.33;23.84;101029.87;102497;279;115707;-55
2023/08/11 09:08:26;;;;;;;3.10;1.60;;;;;;;37.48;24.19;101027.15;102522;279;95272;-55
2023/08/11 09:11:06;;;;;;;3.80;1.60;;;;;;;37.48;24.00;101028.02;102452;279;97418;-55
2023/08/11 09:13:49;;;;;;;2.60;1.40;;;;;;;37.18;23.59;101031.77;102512;278;120647;-55
2023/08/11 09:16:27;;;;;;;1.70;1.20;;;;;;;36.72;23.97;101032.20;102521;279;105585;-56
2023/08/11 09:19:03;;;;;;;2.70;1.90;;;;;;;36.28;24.26;101030.02;102527;279;114449;-55
2023/08/11 09:21:47;;;;;;;3.40;1.90;;;;;;;35.57;24.97;101031.54;102522;279;93016;-56
2023/08/11 09:24:27;;;;;;;3.10;1.30;;;;;;;34.96;25.12;101038.92;102556;279;98492;-55
2023/08/11 09:27:14;;;;;;;4.30;2.10;;;;;;;33.66;25.79;101036.56;102551;279;120862;-57
2023/08/11 09:29:56;;;;;;;3.50;1.80;;;;;;;33.18;26.38;101041.86;102543;278;105163;-58
2023/08/11 09:32:33;;;;;;;2.30;1.40;;;;;;;32.42;26.56;101042.27;102530;279;114581;-55
2023/08/11 09:35:12;;;;;;;3.90;2.20;;;;;;;31.57;27.34;101038.69;102549;278;94836;-56
2023/08/11 09:37:57;;;;;;;3.80;1.80;;;;;;;31.10;28.39;101037.42;102603;278;97608;-56
2023/08/11 09:40:35;;;;;;;3.50;1.70;;;;;;;30.71;28.79;101044.28;102555;278;120928;-55
2023/08/11 09:43:17;;;;;;;3.20;1.80;;;;;;;30.54;29.18;101038.30;102551;279;105322;-56
2023/08/11 09:45:54;;;;;;;2.40;1.70;;;;;;;30.53;30.11;101040.55;102501;278;114431;-56
2023/08/11 09:48:33;;;;;;;3.70;2.50;;;;;;;30.22;30.09;101037.66;102443;279;96664;-56
2023/08/11 09:51:11;;;;;;;4.40;2.00;;;;;;;30.27;30.83;101039.88;102589;279;98267;-56
2023/08/11 09:53:51;;;;;;;3.00;1.70;;;;;;;30.19;31.08;101031.65;102536;279;118977;-56
2023/08/11 09:56:29;;;;;;;4.30;1.80;;;;;;;30.09;31.21;101036.66;102450;278;104285;-55
2023/08/11 09:59:11;;;;;;;4.60;1.80;;;;;;;29.96;31.28;101040.31;102528;279;114595;-55
2023/08/11 10:01:56;;;;;;;4.50;1.70;;;;;;;29.87;31.28;101033.45;102503;279;94346;-54
2023/08/11 10:04:39;;;;;;;5.90;2.30;;;;;;;29.84;31.66;101033.20;102542;271;98080;-55
2023/08/11 10:07:22;;;;;;;4.60;1.80;;;;;;;30.04;32.23;101027.93;102652;278;119788;-58
2023/08/11 10:10:00;;;;;;;4.10;1.90;;;;;;;30.06;31.74;101030.98;102741;278;104495;-58
2023/08/11 10:12:44;;;;;;;3.90;2.10;;;;;;;29.90;31.61;101035.79;102602;279;113986;-56
2023/08/11 10:15:24;;;;;;;3.10;1.30;;;;;;;29.85;31.82;101036.36;102499;278;92915;-57
2023/08/11 10:18:08;;;;;;;2.70;1.60;;;;;;;29.61;30.90;101037.52;102525;278;98411;-55
2023/08/11 10:20:52;;;;;;;3.50;1.70;;;;;;;29.48;31.22;101035.22;102502;278;120254;-56
2023/08/11 10:23:30;;;;;;;2.40;1.60;;;;;;;29.26;31.26;101034.65;102792;276;105799;-56
2023/08/11 10:26:15;;;;;;;4.00;1.40;;;;;;;29.11;31.26;101033.06;102805;276;113575;-54
2023/08/11 10:29:02;;;;;;;2.60;1.50;;;;;;;29.00;31.33;101027.79;102787;276;95214;-53
2023/08/11 10:31:36;;;;;;;2.70;1.40;;;;;;;29.11;31.53;101020.75;102895;276;97659;-58
2023/08/11 10:34:13;;;;;;;2.60;1.40;;;;;;;29.31;31.23;101020.35;103036;276;119886;-57
2023/08/11 10:36:50;;;;;;;3.60;1.90;;;;;;;29.29;31.39;101019.21;102917;276;103736;-56
2023/08/11 10:39:39;;;;;;;3.10;1.40;;;;;;;29.43;31.46;101020.58;102766;276;114053;-56
2023/08/11 10:42:22;;;;;;;2.40;1.60;;;;;;;29.57;31.40;101019.73;102944;276;95297;-58
2023/08/11 10:45:13;;;;;;;3.00;1.40;;;;;;;29.62;31.35;101021.08;103067;276;97406;-58
2023/08/11 10:47:58;;;;;;;2.20;1.40;;;;;;;29.65;30.85;101015.02;103036;276;120219;-57
2023/08/11 10:50:34;;;;;;;3.90;2.20;;;;;;;29.70;31.15;101012.21;103052;276;104707;-58
2023/08/11 10:53:23;;;;;;;2.50;1.50;;;;;;;29.68;31.57;101010.13;102788;276;114587;-56
2023/08/11 10:56:08;;;;;;;3.70;1.70;;;;;;;29.93;31.90;101011.19;102773;276;95452;-56
2023/08/11 10:58:44;;;;;;;2.70;1.90;;;;;;;30.05;31.95;101008.75;102766;276;97536;-56
2023/08/11 11:01:26;;;;;;;3.80;1.40;;;;;;;29.99;31.59;101015.31;102813;276;120178;-55
2023/08/11 11:04:02;;;;;;;2.50;1.30;;;;;;;29.94;31.33;101009.37;102774;276;105613;-55
2023/08/11 11:06:40;;;;;;;2.30;1.40;;;;;;;29.87;31.17;101013.04;102870;276;114167;-58
2023/08/11 11:09:24;;;;;;;2.20;1.30;;;;;;;29.59;31.27;101013.56;102978;276;94137;-58
2023/08/11 11:12:01;;;;;;;1.70;1.10;;;;;;;29.47;31.10;101007.21;103066;276;97394;-58
2023/08/11 11:14:37;;;;;;;2.50;1.30;;;;;;;29.46;31.09;101004.67;102421;276;671259;-57
2023/08/11 11:17:17;;;;;;;2.50;1.40;;;;;;;29.52;30.98;101009.03;102901;276;104747;-54
2023/08/11 11:19:58;;;;;;;2.00;1.30;;;;;;;29.46;31.40;101013.19;102735;276;114058;-54
2023/08/11 11:22:33;;;;;;;4.70;1.60;;;;;;;29.50;31.13;101009.05;102904;276;92435;-58
2023/08/11 11:25:12;;;;;;;3.50;1.40;;;;;;;29.54;31.18;101011.84;102978;276;96749;-58
2023/08/11 11:27:52;;;;;;;2.10;1.10;;;;;;;29.34;31.45;101009.18;102833;276;120834;-55
2023/08/11 11:30:37;;;;;;;3.10;1.40;;;;;;;29.30;31.35;101007.33;102762;276;105202;-55
2023/08/11 11:33:18;;;;;;;2.30;1.30;;;;;;;29.29;31.41;101008.36;102949;276;113086;-58
2023/08/11 11:35:56;;;;;;;3.00;1.30;;;;;;;29.29;30.98;101007.73;102914;276;93764;-55
2023/08/11 11:38:32;;;;;;;2.20;1.50;;;;;;;29.14;30.87;101001.00;102766;276;96621;-55
2023/08/11 11:41:12;;;;;;;2.80;1.50;;;;;;;29.01;30.15;101001.52;102824;276;121011;-58
2023/08/11 11:43:48;;;;;;;3.80;1.30;;;;;;;28.76;30.36;100999.41;103045;276;106007;-58
2023/08/11 11:46:34;;;;;;;1.80;1.30;;;;;;;28.73;30.19;100996.55;103072;276;114594;-56
2023/08/11 11:49:09;;;;;;;1.90;1.40;;;;;;;28.68;30.36;100997.77;102830;276;92323;-56
2023/08/11 11:51:51;;;;;;;2.10;1.30;;;;;;;28.73;30.77;100997.84;102847;276;97471;-56
2023/08/11 11:54:33;;;;;;;2.00;1.20;;;;;;;28.41;31.03;101000.80;102834;276;120703;-55
2023/08/11 11:57:08;;;;;;;1.80;1.30;;;;;;;28.12;30.96;101003.69;102830;276;106031;-55
2023/08/11 11:59:47;;;;;;;2.20;1.60;;;;;;;27.95;31.36;101000.69;102756;276;115121;-56
2023/08/11 12:02:26;;;;;;;2.10;1.50;;;;;;;27.98;31.28;100998.44;102921;276;93720;-57
2023/08/11 12:05:04;;;;;;;3.10;1.50;;;;;;;27.97;31.61;101001.66;102947;276;97721;-57
2023/08/11 12:07:41;;;;;;;3.30;1.50;;;;;;;27.99;32.14;101000.33;102976;276;121183;-57
2023/08/11 12:10:31;;;;;;;3.10;1.40;;;;;;;27.78;32.18;101003.70;102977;276;105163;-59
2023/08/11 12:13:07;;;;;;;3.00;1.20;;;;;;;27.64;31.50;100995.91;102765;276;114175;-56
2023/08/11 12:15:43;;;;;;;3.50;1.20;;;;;;;27.51;31.60;100995.10;102772;276;95101;-55